香港 の空港の天気 - METARとTAF

香港国際空港 ( VHHH / HKG ) - 香港 赤リョウ角
飛行場実況気象(Metar)
観測時間07/02 20:00 HKT (07/02 12:00 UTC)
風向・風速南南東 4m/s
視程10km以上
天気現象
少しの雲 雲底高度 550m
気温30℃
湿度79%
気圧1006hPa
METARVHHH 021200Z 15008KT 9999 FEW018 30/26 Q1006 NOSIG
過去の天気等 Google飛行場航空写真 Wunderground天気予報

過去48時間のMETAR

飛行場予報(TAF)
発表時間: 7/02 19:00 HKT (7/02 11:00 UTC)
予報対象時間: 2日20時 HKT ~ 4日2時 HKT
風向・風速南 5m/s
視程10km以上
少しの雲 雲底高度 460m
全天の4割程度の雲 雲底高度 910m
3日2時 HKT ~ 3日5時 HKT に一時的に
視程4000m
天気現象しゅう雨
少しの積乱雲 雲底高度 370m
全天の4割程度の雲 雲底高度 610m
3日5時 HKT ~ 3日11時 HKT に一時的に
風向・風速不定 8m/s 瞬間風速 13m/s
視程3500m
天気現象弱い雷雨 しゅう雨
少しの積乱雲 雲底高度 300m
全天の4割程度の雲 雲底高度 610m
3日11時 HKT ~ 3日17時 HKT に一時的に
視程4000m
天気現象しゅう雨
少しの積乱雲 雲底高度 370m
全天の4割程度の雲 雲底高度 610m
TAF VHHH 021100Z 0212/0318 18010KT 9999 FEW015 SCT030 TX33/0306Z TN28/0222Z
TEMPO 0218/0221 4000 SHRA FEW012CB SCT020
TEMPO 0221/0303 VRB15G25KT 3500 -TSRA SHRA FEW010CB SCT020
TEMPO 0303/0309 4000 SHRA FEW012CB SCT020